Irwin, Ohio
Current Conditions -  °F | °C
As of 11:53 PM on Saturday 22 Nov 2014 (Local Time) from KMRT Reporting Station
Overcast Overcast  
Wind Chill: 41°   Ceiling: 5000
Heat Index: 46°   Visibility: 10mi
Dew Point: 35°   Wind: 9mph
Humidity: 64%   Direction: 230°SW
Pressure: 30.05"   Gusts: NA
Location:  40.12°N, 83.49°W
Report Text: KMRT 230453Z AUTO 23008KT 10SM BKN050 BKN085 OVC110 08/01 A3005 RMK AO2 T00780014
Loading
Personal Weather Stations






























Interactive Weather Map New forecast layout! Learn more

10-Day Weather Forecast

Advertisements
Track Severe Weather on mobile